sensor_id;sensor_type;location;lat;lon;timestamp;P1;durP1;ratioP1;P2;durP2;ratioP2
11084;SDS011;5596;46.826;8.650;2023-02-04T00:00:07;8.10;;;5.13;;
11084;SDS011;5596;46.826;8.650;2023-02-04T00:02:37;6.93;;;5.10;;
11084;SDS011;5596;46.826;8.650;2023-02-04T00:05:05;8.17;;;5.17;;
11084;SDS011;5596;46.826;8.650;2023-02-04T00:07:34;8.30;;;4.93;;
11084;SDS011;5596;46.826;8.650;2023-02-04T00:10:01;6.97;;;4.83;;
11084;SDS011;5596;46.826;8.650;2023-02-04T00:12:29;6.63;;;4.80;;
11084;SDS011;5596;46.826;8.650;2023-02-04T00:14:55;8.00;;;5.20;;
11084;SDS011;5596;46.826;8.650;2023-02-04T00:17:22;7.13;;;4.90;;
11084;SDS011;5596;46.826;8.650;2023-02-04T00:19:49;8.10;;;5.37;;
11084;SDS011;5596;46.826;8.650;2023-02-04T00:22:16;7.47;;;5.63;;
11084;SDS011;5596;46.826;8.650;2023-02-04T00:24:48;8.20;;;5.80;;
11084;SDS011;5596;46.826;8.650;2023-02-04T00:27:15;10.80;;;5.70;;
11084;SDS011;5596;46.826;8.650;2023-02-04T00:29:42;6.50;;;4.87;;
11084;SDS011;5596;46.826;8.650;2023-02-04T00:32:11;7.73;;;4.70;;
11084;SDS011;5596;46.826;8.650;2023-02-04T00:34:38;7.13;;;5.10;;
11084;SDS011;5596;46.826;8.650;2023-02-04T00:37:05;9.73;;;5.43;;
11084;SDS011;5596;46.826;8.650;2023-02-04T00:39:33;10.83;;;5.53;;
11084;SDS011;5596;46.826;8.650;2023-02-04T00:42:01;11.90;;;5.40;;
11084;SDS011;5596;46.826;8.650;2023-02-04T00:44:30;11.40;;;6.03;;
11084;SDS011;5596;46.826;8.650;2023-02-04T00:46:57;8.30;;;5.90;;
11084;SDS011;5596;46.826;8.650;2023-02-04T00:49:24;8.53;;;5.80;;
11084;SDS011;5596;46.826;8.650;2023-02-04T00:51:52;13.10;;;5.80;;
11084;SDS011;5596;46.826;8.650;2023-02-04T00:54:19;7.77;;;5.70;;
11084;SDS011;5596;46.826;8.650;2023-02-04T00:56:46;8.67;;;5.50;;
11084;SDS011;5596;46.826;8.650;2023-02-04T00:59:15;9.37;;;5.23;;
11084;SDS011;5596;46.826;8.650;2023-02-04T01:01:42;9.13;;;5.90;;
11084;SDS011;5596;46.826;8.650;2023-02-04T01:04:09;9.40;;;5.93;;
11084;SDS011;5596;46.826;8.650;2023-02-04T01:06:36;10.47;;;6.00;;
11084;SDS011;5596;46.826;8.650;2023-02-04T01:09:07;11.23;;;5.70;;
11084;SDS011;5596;46.826;8.650;2023-02-04T01:11:34;8.53;;;5.40;;
11084;SDS011;5596;46.826;8.650;2023-02-04T01:14:02;10.07;;;6.23;;
11084;SDS011;5596;46.826;8.650;2023-02-04T01:16:30;8.43;;;5.23;;
11084;SDS011;5596;46.826;8.650;2023-02-04T01:18:57;7.67;;;5.53;;
11084;SDS011;5596;46.826;8.650;2023-02-04T01:21:24;7.57;;;5.07;;
11084;SDS011;5596;46.826;8.650;2023-02-04T01:23:51;7.07;;;5.10;;
11084;SDS011;5596;46.826;8.650;2023-02-04T01:26:19;7.77;;;5.20;;
11084;SDS011;5596;46.826;8.650;2023-02-04T01:28:46;7.33;;;5.13;;
11084;SDS011;5596;46.826;8.650;2023-02-04T01:31:14;8.03;;;5.60;;
11084;SDS011;5596;46.826;8.650;2023-02-04T01:33:43;6.67;;;5.30;;
11084;SDS011;5596;46.826;8.650;2023-02-04T01:36:10;8.43;;;5.03;;
11084;SDS011;5596;46.826;8.650;2023-02-04T01:38:38;7.27;;;4.83;;
11084;SDS011;5596;46.826;8.650;2023-02-04T01:41:05;8.67;;;5.30;;
11084;SDS011;5596;46.826;8.650;2023-02-04T01:43:32;8.20;;;5.50;;
11084;SDS011;5596;46.826;8.650;2023-02-04T01:46:00;9.20;;;5.67;;
11084;SDS011;5596;46.826;8.650;2023-02-04T01:48:27;6.40;;;5.03;;
11084;SDS011;5596;46.826;8.650;2023-02-04T01:50:58;8.67;;;4.83;;
11084;SDS011;5596;46.826;8.650;2023-02-04T01:53:29;10.50;;;4.70;;
11084;SDS011;5596;46.826;8.650;2023-02-04T01:55:56;10.53;;;5.50;;
11084;SDS011;5596;46.826;8.650;2023-02-04T01:58:24;7.97;;;5.27;;
11084;SDS011;5596;46.826;8.650;2023-02-04T02:00:52;6.97;;;5.00;;
11084;SDS011;5596;46.826;8.650;2023-02-04T02:03:19;6.63;;;4.70;;
11084;SDS011;5596;46.826;8.650;2023-02-04T02:05:46;6.63;;;4.67;;
11084;SDS011;5596;46.826;8.650;2023-02-04T02:08:18;8.00;;;4.73;;
11084;SDS011;5596;46.826;8.650;2023-02-04T02:10:45;7.83;;;4.90;;
11084;SDS011;5596;46.826;8.650;2023-02-04T02:13:15;7.27;;;5.30;;
11084;SDS011;5596;46.826;8.650;2023-02-04T02:15:44;7.03;;;4.83;;
11084;SDS011;5596;46.826;8.650;2023-02-04T02:18:13;8.50;;;5.13;;
11084;SDS011;5596;46.826;8.650;2023-02-04T02:20:43;8.97;;;5.40;;
11084;SDS011;5596;46.826;8.650;2023-02-04T02:23:13;7.23;;;5.10;;
11084;SDS011;5596;46.826;8.650;2023-02-04T02:25:45;9.00;;;5.40;;
11084;SDS011;5596;46.826;8.650;2023-02-04T02:28:20;6.77;;;5.13;;
11084;SDS011;5596;46.826;8.650;2023-02-04T02:30:49;7.20;;;5.27;;
11084;SDS011;5596;46.826;8.650;2023-02-04T02:33:18;7.63;;;5.60;;
11084;SDS011;5596;46.826;8.650;2023-02-04T02:35:48;11.13;;;6.53;;
11084;SDS011;5596;46.826;8.650;2023-02-04T02:38:15;8.37;;;5.27;;
11084;SDS011;5596;46.826;8.650;2023-02-04T02:40:46;9.10;;;5.80;;
11084;SDS011;5596;46.826;8.650;2023-02-04T02:43:16;7.80;;;5.57;;
11084;SDS011;5596;46.826;8.650;2023-02-04T02:45:45;9.17;;;5.57;;
11084;SDS011;5596;46.826;8.650;2023-02-04T02:48:13;8.23;;;5.60;;
11084;SDS011;5596;46.826;8.650;2023-02-04T02:50:40;8.83;;;5.50;;
11084;SDS011;5596;46.826;8.650;2023-02-04T02:53:09;10.77;;;5.77;;
11084;SDS011;5596;46.826;8.650;2023-02-04T02:55:39;9.77;;;5.27;;
11084;SDS011;5596;46.826;8.650;2023-02-04T02:58:10;8.40;;;5.50;;
11084;SDS011;5596;46.826;8.650;2023-02-04T03:00:40;7.30;;;5.60;;
11084;SDS011;5596;46.826;8.650;2023-02-04T03:03:11;9.27;;;5.27;;
11084;SDS011;5596;46.826;8.650;2023-02-04T03:05:42;7.17;;;4.83;;
11084;SDS011;5596;46.826;8.650;2023-02-04T03:08:11;9.33;;;5.80;;
11084;SDS011;5596;46.826;8.650;2023-02-04T03:10:40;6.57;;;5.00;;
11084;SDS011;5596;46.826;8.650;2023-02-04T03:13:12;8.43;;;5.73;;
11084;SDS011;5596;46.826;8.650;2023-02-04T03:15:41;7.60;;;5.47;;
11084;SDS011;5596;46.826;8.650;2023-02-04T03:18:11;6.70;;;4.83;;
11084;SDS011;5596;46.826;8.650;2023-02-04T03:20:40;8.27;;;5.70;;
11084;SDS011;5596;46.826;8.650;2023-02-04T03:23:08;8.47;;;4.87;;
11084;SDS011;5596;46.826;8.650;2023-02-04T03:25:38;7.97;;;5.43;;
11084;SDS011;5596;46.826;8.650;2023-02-04T03:28:05;8.00;;;5.73;;
11084;SDS011;5596;46.826;8.650;2023-02-04T03:30:34;10.00;;;5.23;;
11084;SDS011;5596;46.826;8.650;2023-02-04T03:33:01;9.73;;;5.43;;
11084;SDS011;5596;46.826;8.650;2023-02-04T03:35:28;7.93;;;5.10;;
11084;SDS011;5596;46.826;8.650;2023-02-04T03:37:55;8.00;;;5.07;;
11084;SDS011;5596;46.826;8.650;2023-02-04T03:40:24;9.73;;;5.83;;
11084;SDS011;5596;46.826;8.650;2023-02-04T03:42:51;8.13;;;6.10;;
11084;SDS011;5596;46.826;8.650;2023-02-04T03:45:19;8.57;;;5.93;;
11084;SDS011;5596;46.826;8.650;2023-02-04T03:47:47;9.50;;;5.40;;
11084;SDS011;5596;46.826;8.650;2023-02-04T03:50:15;8.70;;;5.80;;
11084;SDS011;5596;46.826;8.650;2023-02-04T03:52:42;7.37;;;5.10;;
11084;SDS011;5596;46.826;8.650;2023-02-04T03:55:10;7.93;;;5.43;;
11084;SDS011;5596;46.826;8.650;2023-02-04T03:57:40;7.23;;;4.93;;
11084;SDS011;5596;46.826;8.650;2023-02-04T04:00:07;7.80;;;5.80;;
11084;SDS011;5596;46.826;8.650;2023-02-04T04:02:38;10.00;;;6.43;;
11084;SDS011;5596;46.826;8.650;2023-02-04T04:05:07;8.33;;;5.83;;
11084;SDS011;5596;46.826;8.650;2023-02-04T04:07:35;8.40;;;5.93;;
11084;SDS011;5596;46.826;8.650;2023-02-04T04:10:07;8.93;;;6.07;;
11084;SDS011;5596;46.826;8.650;2023-02-04T04:12:35;8.80;;;5.87;;
11084;SDS011;5596;46.826;8.650;2023-02-04T04:15:02;7.93;;;5.63;;
11084;SDS011;5596;46.826;8.650;2023-02-04T04:17:30;7.53;;;5.67;;
11084;SDS011;5596;46.826;8.650;2023-02-04T04:19:57;7.50;;;5.63;;
11084;SDS011;5596;46.826;8.650;2023-02-04T04:22:26;7.40;;;5.20;;
11084;SDS011;5596;46.826;8.650;2023-02-04T04:24:53;8.17;;;5.93;;
11084;SDS011;5596;46.826;8.650;2023-02-04T04:27:20;10.73;;;5.73;;
11084;SDS011;5596;46.826;8.650;2023-02-04T04:29:47;8.77;;;5.37;;
11084;SDS011;5596;46.826;8.650;2023-02-04T04:32:14;8.30;;;5.67;;
11084;SDS011;5596;46.826;8.650;2023-02-04T04:34:41;7.40;;;5.40;;
11084;SDS011;5596;46.826;8.650;2023-02-04T04:37:11;7.10;;;5.73;;
11084;SDS011;5596;46.826;8.650;2023-02-04T04:39:39;8.07;;;5.87;;
11084;SDS011;5596;46.826;8.650;2023-02-04T04:42:06;8.30;;;5.97;;
11084;SDS011;5596;46.826;8.650;2023-02-04T04:44:33;9.13;;;6.00;;
11084;SDS011;5596;46.826;8.650;2023-02-04T04:47:01;7.53;;;5.30;;
11084;SDS011;5596;46.826;8.650;2023-02-04T04:49:29;7.40;;;5.77;;
11084;SDS011;5596;46.826;8.650;2023-02-04T04:51:56;8.23;;;5.97;;
11084;SDS011;5596;46.826;8.650;2023-02-04T04:54:22;9.53;;;6.37;;
11084;SDS011;5596;46.826;8.650;2023-02-04T04:56:51;10.10;;;6.97;;
11084;SDS011;5596;46.826;8.650;2023-02-04T04:59:18;9.47;;;6.57;;
11084;SDS011;5596;46.826;8.650;2023-02-04T05:01:45;8.30;;;6.17;;
11084;SDS011;5596;46.826;8.650;2023-02-04T05:04:12;8.43;;;6.37;;
11084;SDS011;5596;46.826;8.650;2023-02-04T05:06:39;8.50;;;6.40;;
11084;SDS011;5596;46.826;8.650;2023-02-04T05:09:06;8.07;;;6.03;;
11084;SDS011;5596;46.826;8.650;2023-02-04T05:11:34;7.97;;;6.47;;
11084;SDS011;5596;46.826;8.650;2023-02-04T05:14:02;9.47;;;6.63;;
11084;SDS011;5596;46.826;8.650;2023-02-04T05:16:30;9.57;;;6.17;;
11084;SDS011;5596;46.826;8.650;2023-02-04T05:19:00;9.37;;;6.77;;
11084;SDS011;5596;46.826;8.650;2023-02-04T05:21:27;8.40;;;6.77;;
11084;SDS011;5596;46.826;8.650;2023-02-04T05:23:54;8.57;;;6.60;;
11084;SDS011;5596;46.826;8.650;2023-02-04T05:26:21;9.27;;;7.00;;
11084;SDS011;5596;46.826;8.650;2023-02-04T05:28:48;10.57;;;7.27;;
11084;SDS011;5596;46.826;8.650;2023-02-04T05:31:16;9.87;;;6.83;;
11084;SDS011;5596;46.826;8.650;2023-02-04T05:33:43;9.10;;;6.57;;
11084;SDS011;5596;46.826;8.650;2023-02-04T05:36:10;8.23;;;6.00;;
11084;SDS011;5596;46.826;8.650;2023-02-04T05:38:37;9.03;;;6.50;;
11084;SDS011;5596;46.826;8.650;2023-02-04T05:41:05;10.07;;;6.30;;
11084;SDS011;5596;46.826;8.650;2023-02-04T05:43:31;11.53;;;7.00;;
11084;SDS011;5596;46.826;8.650;2023-02-04T05:45:59;8.70;;;6.27;;
11084;SDS011;5596;46.826;8.650;2023-02-04T05:48:28;8.73;;;6.53;;
11084;SDS011;5596;46.826;8.650;2023-02-04T05:50:55;9.70;;;6.90;;
11084;SDS011;5596;46.826;8.650;2023-02-04T05:53:22;8.97;;;6.60;;
11084;SDS011;5596;46.826;8.650;2023-02-04T05:55:49;7.97;;;6.03;;
11084;SDS011;5596;46.826;8.650;2023-02-04T05:58:16;9.77;;;7.13;;
11084;SDS011;5596;46.826;8.650;2023-02-04T06:00:47;9.10;;;7.00;;
11084;SDS011;5596;46.826;8.650;2023-02-04T06:03:14;9.47;;;6.70;;
11084;SDS011;5596;46.826;8.650;2023-02-04T06:05:45;12.30;;;7.30;;
11084;SDS011;5596;46.826;8.650;2023-02-04T06:08:12;10.57;;;6.60;;
11084;SDS011;5596;46.826;8.650;2023-02-04T06:10:40;12.03;;;7.57;;
11084;SDS011;5596;46.826;8.650;2023-02-04T06:13:07;9.93;;;7.03;;
11084;SDS011;5596;46.826;8.650;2023-02-04T06:15:34;12.13;;;7.50;;
11084;SDS011;5596;46.826;8.650;2023-02-04T06:18:01;10.47;;;7.40;;
11084;SDS011;5596;46.826;8.650;2023-02-04T06:20:28;13.63;;;7.50;;
11084;SDS011;5596;46.826;8.650;2023-02-04T06:22:56;10.63;;;7.87;;
11084;SDS011;5596;46.826;8.650;2023-02-04T06:25:23;11.63;;;8.10;;
11084;SDS011;5596;46.826;8.650;2023-02-04T06:27:50;13.37;;;8.80;;
11084;SDS011;5596;46.826;8.650;2023-02-04T06:30:18;12.13;;;8.47;;
11084;SDS011;5596;46.826;8.650;2023-02-04T06:32:45;11.47;;;8.60;;
11084;SDS011;5596;46.826;8.650;2023-02-04T06:35:12;11.60;;;8.40;;
11084;SDS011;5596;46.826;8.650;2023-02-04T06:37:41;12.47;;;8.33;;
11084;SDS011;5596;46.826;8.650;2023-02-04T06:40:10;13.87;;;9.60;;
11084;SDS011;5596;46.826;8.650;2023-02-04T06:42:38;13.70;;;9.63;;
11084;SDS011;5596;46.826;8.650;2023-02-04T06:45:05;17.27;;;10.60;;
11084;SDS011;5596;46.826;8.650;2023-02-04T06:47:33;14.23;;;9.47;;
11084;SDS011;5596;46.826;8.650;2023-02-04T06:50:00;13.93;;;9.43;;
11084;SDS011;5596;46.826;8.650;2023-02-04T06:52:27;15.13;;;9.73;;
11084;SDS011;5596;46.826;8.650;2023-02-04T06:54:54;14.50;;;9.83;;
11084;SDS011;5596;46.826;8.650;2023-02-04T06:57:22;12.10;;;8.17;;
11084;SDS011;5596;46.826;8.650;2023-02-04T06:59:49;16.00;;;8.77;;
11084;SDS011;5596;46.826;8.650;2023-02-04T07:02:17;16.23;;;9.47;;
11084;SDS011;5596;46.826;8.650;2023-02-04T07:04:44;13.63;;;8.80;;
11084;SDS011;5596;46.826;8.650;2023-02-04T07:07:11;12.80;;;7.77;;
11084;SDS011;5596;46.826;8.650;2023-02-04T07:09:41;10.07;;;6.67;;
11084;SDS011;5596;46.826;8.650;2023-02-04T07:12:08;8.17;;;6.07;;
11084;SDS011;5596;46.826;8.650;2023-02-04T07:14:36;9.60;;;6.40;;
11084;SDS011;5596;46.826;8.650;2023-02-04T07:17:04;13.20;;;7.07;;
11084;SDS011;5596;46.826;8.650;2023-02-04T07:19:34;9.43;;;6.80;;
11084;SDS011;5596;46.826;8.650;2023-02-04T07:22:02;12.67;;;7.00;;
11084;SDS011;5596;46.826;8.650;2023-02-04T07:24:31;11.83;;;7.53;;
11084;SDS011;5596;46.826;8.650;2023-02-04T07:26:58;10.20;;;7.40;;
11084;SDS011;5596;46.826;8.650;2023-02-04T07:29:25;8.53;;;6.37;;
11084;SDS011;5596;46.826;8.650;2023-02-04T07:31:53;10.67;;;6.77;;
11084;SDS011;5596;46.826;8.650;2023-02-04T07:34:22;8.63;;;6.17;;
11084;SDS011;5596;46.826;8.650;2023-02-04T07:36:49;8.87;;;5.90;;
11084;SDS011;5596;46.826;8.650;2023-02-04T07:39:17;10.30;;;6.00;;
11084;SDS011;5596;46.826;8.650;2023-02-04T07:41:44;8.70;;;6.13;;
11084;SDS011;5596;46.826;8.650;2023-02-04T07:44:13;7.30;;;5.30;;
11084;SDS011;5596;46.826;8.650;2023-02-04T07:46:40;7.10;;;5.67;;
11084;SDS011;5596;46.826;8.650;2023-02-04T07:49:08;6.23;;;4.87;;
11084;SDS011;5596;46.826;8.650;2023-02-04T07:51:38;6.97;;;5.17;;
11084;SDS011;5596;46.826;8.650;2023-02-04T07:54:05;6.57;;;4.13;;
11084;SDS011;5596;46.826;8.650;2023-02-04T07:56:32;8.10;;;4.30;;
11084;SDS011;5596;46.826;8.650;2023-02-04T07:58:59;4.70;;;3.40;;
11084;SDS011;5596;46.826;8.650;2023-02-04T08:01:26;2.90;;;2.20;;
11084;SDS011;5596;46.826;8.650;2023-02-04T08:03:53;4.10;;;3.30;;
11084;SDS011;5596;46.826;8.650;2023-02-04T08:06:22;5.10;;;3.80;;
11084;SDS011;5596;46.826;8.650;2023-02-04T08:08:49;1.80;;;1.50;;
11084;SDS011;5596;46.826;8.650;2023-02-04T08:11:16;1.77;;;1.50;;
11084;SDS011;5596;46.826;8.650;2023-02-04T08:13:43;2.23;;;1.40;;
11084;SDS011;5596;46.826;8.650;2023-02-04T08:16:10;1.30;;;1.20;;
11084;SDS011;5596;46.826;8.650;2023-02-04T08:18:37;1.73;;;1.20;;
11084;SDS011;5596;46.826;8.650;2023-02-04T08:21:04;3.40;;;1.20;;
11084;SDS011;5596;46.826;8.650;2023-02-04T08:23:33;1.13;;;1.03;;
11084;SDS011;5596;46.826;8.650;2023-02-04T08:26:06;2.13;;;1.53;;
11084;SDS011;5596;46.826;8.650;2023-02-04T08:28:34;4.47;;;1.70;;
11084;SDS011;5596;46.826;8.650;2023-02-04T08:31:01;1.80;;;1.20;;
11084;SDS011;5596;46.826;8.650;2023-02-04T08:33:28;1.30;;;1.10;;
11084;SDS011;5596;46.826;8.650;2023-02-04T08:35:56;2.20;;;1.40;;
11084;SDS011;5596;46.826;8.650;2023-02-04T08:38:23;1.47;;;1.23;;
11084;SDS011;5596;46.826;8.650;2023-02-04T08:40:51;1.60;;;1.30;;
11084;SDS011;5596;46.826;8.650;2023-02-04T08:43:18;2.93;;;1.23;;
11084;SDS011;5596;46.826;8.650;2023-02-04T08:45:45;1.60;;;1.27;;
11084;SDS011;5596;46.826;8.650;2023-02-04T08:48:12;2.20;;;1.50;;
11084;SDS011;5596;46.826;8.650;2023-02-04T08:50:39;3.40;;;1.57;;
11084;SDS011;5596;46.826;8.650;2023-02-04T08:53:06;1.63;;;1.20;;
11084;SDS011;5596;46.826;8.650;2023-02-04T08:55:33;1.10;;;1.00;;
11084;SDS011;5596;46.826;8.650;2023-02-04T08:58:02;1.50;;;1.40;;
11084;SDS011;5596;46.826;8.650;2023-02-04T09:00:32;2.60;;;1.40;;
11084;SDS011;5596;46.826;8.650;2023-02-04T09:02:59;2.90;;;1.07;;
11084;SDS011;5596;46.826;8.650;2023-02-04T09:05:26;1.47;;;1.10;;
11084;SDS011;5596;46.826;8.650;2023-02-04T09:07:53;1.43;;;1.10;;
11084;SDS011;5596;46.826;8.650;2023-02-04T09:10:20;1.90;;;1.20;;
11084;SDS011;5596;46.826;8.650;2023-02-04T09:12:47;1.67;;;1.20;;
11084;SDS011;5596;46.826;8.650;2023-02-04T09:15:21;1.40;;;1.10;;
11084;SDS011;5596;46.826;8.650;2023-02-04T09:17:50;1.83;;;1.10;;
11084;SDS011;5596;46.826;8.650;2023-02-04T09:20:25;1.50;;;1.20;;
11084;SDS011;5596;46.826;8.650;2023-02-04T09:22:53;1.37;;;1.27;;
11084;SDS011;5596;46.826;8.650;2023-02-04T09:25:20;3.13;;;1.47;;
11084;SDS011;5596;46.826;8.650;2023-02-04T09:27:47;1.60;;;1.20;;
11084;SDS011;5596;46.826;8.650;2023-02-04T09:30:14;1.70;;;1.13;;
11084;SDS011;5596;46.826;8.650;2023-02-04T09:32:43;1.67;;;1.20;;
11084;SDS011;5596;46.826;8.650;2023-02-04T09:35:10;1.20;;;1.10;;
11084;SDS011;5596;46.826;8.650;2023-02-04T09:37:37;1.30;;;1.20;;
11084;SDS011;5596;46.826;8.650;2023-02-04T09:40:04;1.23;;;1.10;;
11084;SDS011;5596;46.826;8.650;2023-02-04T09:42:33;3.13;;;1.57;;
11084;SDS011;5596;46.826;8.650;2023-02-04T09:45:00;2.40;;;1.50;;
11084;SDS011;5596;46.826;8.650;2023-02-04T09:47:31;1.13;;;1.03;;
11084;SDS011;5596;46.826;8.650;2023-02-04T09:49:59;1.90;;;1.20;;
11084;SDS011;5596;46.826;8.650;2023-02-04T09:52:27;1.80;;;1.30;;
11084;SDS011;5596;46.826;8.650;2023-02-04T09:54:54;1.40;;;1.10;;
11084;SDS011;5596;46.826;8.650;2023-02-04T09:57:21;1.40;;;1.20;;
11084;SDS011;5596;46.826;8.650;2023-02-04T09:59:48;1.53;;;1.10;;
11084;SDS011;5596;46.826;8.650;2023-02-04T10:02:22;1.00;;;0.90;;
11084;SDS011;5596;46.826;8.650;2023-02-04T10:04:51;1.10;;;1.00;;
11084;SDS011;5596;46.826;8.650;2023-02-04T10:07:24;1.87;;;1.10;;
11084;SDS011;5596;46.826;8.650;2023-02-04T10:09:52;0.80;;;0.80;;
11084;SDS011;5596;46.826;8.650;2023-02-04T10:12:19;1.20;;;1.10;;
11084;SDS011;5596;46.826;8.650;2023-02-04T10:14:47;0.80;;;0.80;;
11084;SDS011;5596;46.826;8.650;2023-02-04T10:17:17;2.73;;;0.90;;
11084;SDS011;5596;46.826;8.650;2023-02-04T10:19:47;0.80;;;0.80;;
11084;SDS011;5596;46.826;8.650;2023-02-04T10:22:15;0.97;;;0.87;;
11084;SDS011;5596;46.826;8.650;2023-02-04T10:24:45;1.20;;;1.10;;
11084;SDS011;5596;46.826;8.650;2023-02-04T10:27:12;1.37;;;0.90;;
11084;SDS011;5596;46.826;8.650;2023-02-04T10:29:42;1.30;;;1.10;;
11084;SDS011;5596;46.826;8.650;2023-02-04T10:32:24;2.60;;;1.20;;
11084;SDS011;5596;46.826;8.650;2023-02-04T10:34:55;1.80;;;1.33;;
11084;SDS011;5596;46.826;8.650;2023-02-04T10:37:24;2.73;;;1.03;;
11084;SDS011;5596;46.826;8.650;2023-02-04T10:39:52;1.17;;;1.07;;
11084;SDS011;5596;46.826;8.650;2023-02-04T10:42:21;2.23;;;1.00;;
11084;SDS011;5596;46.826;8.650;2023-02-04T10:44:49;1.50;;;1.10;;
11084;SDS011;5596;46.826;8.650;2023-02-04T10:47:17;3.50;;;1.37;;
11084;SDS011;5596;46.826;8.650;2023-02-04T10:49:52;1.57;;;1.20;;
11084;SDS011;5596;46.826;8.650;2023-02-04T10:52:22;1.57;;;1.20;;
11084;SDS011;5596;46.826;8.650;2023-02-04T10:54:53;2.43;;;1.10;;
11084;SDS011;5596;46.826;8.650;2023-02-04T10:57:21;1.77;;;1.30;;
11084;SDS011;5596;46.826;8.650;2023-02-04T10:59:53;1.10;;;1.00;;
11084;SDS011;5596;46.826;8.650;2023-02-04T11:05:12;1.00;;;0.90;;
11084;SDS011;5596;46.826;8.650;2023-02-04T11:07:41;1.10;;;1.00;;
11084;SDS011;5596;46.826;8.650;2023-02-04T11:10:14;1.40;;;1.00;;
11084;SDS011;5596;46.826;8.650;2023-02-04T11:12:43;2.03;;;1.33;;
11084;SDS011;5596;46.826;8.650;2023-02-04T11:18:25;1.20;;;1.10;;
11084;SDS011;5596;46.826;8.650;2023-02-04T11:20:56;3.00;;;1.30;;
11084;SDS011;5596;46.826;8.650;2023-02-04T11:23:34;1.30;;;1.20;;
11084;SDS011;5596;46.826;8.650;2023-02-04T11:26:05;1.27;;;1.10;;
11084;SDS011;5596;46.826;8.650;2023-02-04T11:28:38;1.40;;;1.10;;
11084;SDS011;5596;46.826;8.650;2023-02-04T11:31:24;1.53;;;1.30;;
11084;SDS011;5596;46.826;8.650;2023-02-04T11:34:08;1.20;;;1.10;;
11084;SDS011;5596;46.826;8.650;2023-02-04T11:36:49;1.20;;;1.00;;
11084;SDS011;5596;46.826;8.650;2023-02-04T11:39:20;1.30;;;1.20;;
11084;SDS011;5596;46.826;8.650;2023-02-04T11:41:51;2.33;;;1.40;;
11084;SDS011;5596;46.826;8.650;2023-02-04T11:44:18;1.77;;;1.20;;
11084;SDS011;5596;46.826;8.650;2023-02-04T11:46:48;2.03;;;1.20;;
11084;SDS011;5596;46.826;8.650;2023-02-04T11:49:17;1.40;;;1.10;;
11084;SDS011;5596;46.826;8.650;2023-02-04T11:51:45;2.27;;;1.40;;
11084;SDS011;5596;46.826;8.650;2023-02-04T11:54:14;1.23;;;1.07;;
11084;SDS011;5596;46.826;8.650;2023-02-04T11:56:43;2.40;;;1.10;;
11084;SDS011;5596;46.826;8.650;2023-02-04T11:59:13;1.57;;;1.20;;
11084;SDS011;5596;46.826;8.650;2023-02-04T12:01:42;0.80;;;0.80;;
11084;SDS011;5596;46.826;8.650;2023-02-04T12:04:18;1.37;;;1.10;;
11084;SDS011;5596;46.826;8.650;2023-02-04T12:06:55;0.90;;;0.90;;
11084;SDS011;5596;46.826;8.650;2023-02-04T12:09:25;0.83;;;0.80;;
11084;SDS011;5596;46.826;8.650;2023-02-04T12:11:54;1.20;;;0.90;;
11084;SDS011;5596;46.826;8.650;2023-02-04T12:14:28;1.10;;;1.00;;
11084;SDS011;5596;46.826;8.650;2023-02-04T12:16:58;0.93;;;0.93;;
11084;SDS011;5596;46.826;8.650;2023-02-04T12:19:26;2.83;;;1.20;;
11084;SDS011;5596;46.826;8.650;2023-02-04T12:21:54;3.07;;;1.10;;
11084;SDS011;5596;46.826;8.650;2023-02-04T12:24:25;2.07;;;1.23;;
11084;SDS011;5596;46.826;8.650;2023-02-04T12:26:52;1.43;;;1.20;;
11084;SDS011;5596;46.826;8.650;2023-02-04T12:29:19;2.33;;;1.20;;
11084;SDS011;5596;46.826;8.650;2023-02-04T12:31:48;1.30;;;1.20;;
11084;SDS011;5596;46.826;8.650;2023-02-04T12:34:15;1.37;;;1.20;;
11084;SDS011;5596;46.826;8.650;2023-02-04T12:36:42;1.83;;;1.10;;
11084;SDS011;5596;46.826;8.650;2023-02-04T12:39:09;1.63;;;1.30;;
11084;SDS011;5596;46.826;8.650;2023-02-04T12:41:36;1.30;;;1.20;;
11084;SDS011;5596;46.826;8.650;2023-02-04T12:44:03;1.97;;;1.33;;
11084;SDS011;5596;46.826;8.650;2023-02-04T12:46:30;1.30;;;1.20;;
11084;SDS011;5596;46.826;8.650;2023-02-04T12:48:58;2.00;;;1.50;;
11084;SDS011;5596;46.826;8.650;2023-02-04T12:51:26;1.90;;;1.70;;
11084;SDS011;5596;46.826;8.650;2023-02-04T12:53:53;2.53;;;1.67;;
11084;SDS011;5596;46.826;8.650;2023-02-04T12:56:20;1.53;;;1.43;;
11084;SDS011;5596;46.826;8.650;2023-02-04T12:58:48;1.40;;;1.30;;
11084;SDS011;5596;46.826;8.650;2023-02-04T13:01:15;1.57;;;1.40;;
11084;SDS011;5596;46.826;8.650;2023-02-04T13:03:42;1.30;;;1.20;;
11084;SDS011;5596;46.826;8.650;2023-02-04T13:06:11;1.60;;;1.30;;
11084;SDS011;5596;46.826;8.650;2023-02-04T13:08:38;1.57;;;1.47;;
11084;SDS011;5596;46.826;8.650;2023-02-04T13:11:05;1.97;;;1.40;;
11084;SDS011;5596;46.826;8.650;2023-02-04T13:13:32;1.77;;;1.67;;
11084;SDS011;5596;46.826;8.650;2023-02-04T13:15:59;1.47;;;1.20;;
11084;SDS011;5596;46.826;8.650;2023-02-04T13:18:26;1.50;;;1.23;;
11084;SDS011;5596;46.826;8.650;2023-02-04T13:20:54;1.40;;;1.30;;
11084;SDS011;5596;46.826;8.650;2023-02-04T13:23:22;3.30;;;1.20;;
11084;SDS011;5596;46.826;8.650;2023-02-04T13:25:49;1.80;;;1.50;;
11084;SDS011;5596;46.826;8.650;2023-02-04T13:28:16;1.33;;;1.20;;
11084;SDS011;5596;46.826;8.650;2023-02-04T13:30:43;1.70;;;1.40;;
11084;SDS011;5596;46.826;8.650;2023-02-04T13:33:10;1.40;;;1.30;;
11084;SDS011;5596;46.826;8.650;2023-02-04T13:35:38;1.50;;;1.40;;
11084;SDS011;5596;46.826;8.650;2023-02-04T13:38:05;1.43;;;1.33;;
11084;SDS011;5596;46.826;8.650;2023-02-04T13:40:33;1.67;;;1.50;;
11084;SDS011;5596;46.826;8.650;2023-02-04T13:43:00;1.50;;;1.40;;
11084;SDS011;5596;46.826;8.650;2023-02-04T13:45:28;2.80;;;2.00;;
11084;SDS011;5596;46.826;8.650;2023-02-04T13:47:54;2.20;;;1.87;;
11084;SDS011;5596;46.826;8.650;2023-02-04T13:50:22;1.20;;;1.10;;
11084;SDS011;5596;46.826;8.650;2023-02-04T13:52:49;2.00;;;1.70;;
11084;SDS011;5596;46.826;8.650;2023-02-04T13:55:16;1.87;;;1.70;;
11084;SDS011;5596;46.826;8.650;2023-02-04T13:57:44;1.10;;;1.00;;
11084;SDS011;5596;46.826;8.650;2023-02-04T14:00:12;1.20;;;1.10;;
11084;SDS011;5596;46.826;8.650;2023-02-04T14:02:39;1.80;;;1.50;;
11084;SDS011;5596;46.826;8.650;2023-02-04T14:05:07;1.50;;;1.40;;
11084;SDS011;5596;46.826;8.650;2023-02-04T14:07:34;1.30;;;1.20;;
11084;SDS011;5596;46.826;8.650;2023-02-04T14:10:01;1.10;;;1.00;;
11084;SDS011;5596;46.826;8.650;2023-02-04T14:12:28;1.77;;;1.17;;
11084;SDS011;5596;46.826;8.650;2023-02-04T14:14:56;1.03;;;1.00;;
11084;SDS011;5596;46.826;8.650;2023-02-04T14:17:24;1.40;;;1.30;;
11084;SDS011;5596;46.826;8.650;2023-02-04T14:19:51;1.47;;;1.20;;
11084;SDS011;5596;46.826;8.650;2023-02-04T14:22:19;2.10;;;1.43;;
11084;SDS011;5596;46.826;8.650;2023-02-04T14:24:46;1.40;;;1.30;;
11084;SDS011;5596;46.826;8.650;2023-02-04T14:27:14;1.40;;;1.30;;
11084;SDS011;5596;46.826;8.650;2023-02-04T14:29:42;1.37;;;1.27;;
11084;SDS011;5596;46.826;8.650;2023-02-04T14:32:10;1.27;;;1.17;;
11084;SDS011;5596;46.826;8.650;2023-02-04T14:34:37;3.13;;;2.10;;
11084;SDS011;5596;46.826;8.650;2023-02-04T14:37:04;1.50;;;1.40;;
11084;SDS011;5596;46.826;8.650;2023-02-04T14:39:34;1.53;;;1.43;;
11084;SDS011;5596;46.826;8.650;2023-02-04T14:42:01;2.00;;;1.80;;
11084;SDS011;5596;46.826;8.650;2023-02-04T14:44:29;1.70;;;1.60;;
11084;SDS011;5596;46.826;8.650;2023-02-04T14:46:56;1.97;;;1.73;;
11084;SDS011;5596;46.826;8.650;2023-02-04T14:49:24;1.70;;;1.60;;
11084;SDS011;5596;46.826;8.650;2023-02-04T14:51:52;1.83;;;1.73;;
11084;SDS011;5596;46.826;8.650;2023-02-04T14:54:19;1.80;;;1.57;;
11084;SDS011;5596;46.826;8.650;2023-02-04T14:56:46;1.83;;;1.70;;
11084;SDS011;5596;46.826;8.650;2023-02-04T14:59:14;2.27;;;1.70;;
11084;SDS011;5596;46.826;8.650;2023-02-04T15:01:41;3.73;;;2.00;;
11084;SDS011;5596;46.826;8.650;2023-02-04T15:04:10;1.50;;;1.40;;
11084;SDS011;5596;46.826;8.650;2023-02-04T15:06:38;1.83;;;1.73;;
11084;SDS011;5596;46.826;8.650;2023-02-04T15:09:05;3.37;;;2.30;;
11084;SDS011;5596;46.826;8.650;2023-02-04T15:11:32;5.37;;;1.93;;